Time;durP1;ratioP1;P1;durP2;ratioP2;P2;SDS_P1;SDS_P2;PMS_P1;PMS_P2;Temp;Humidity;BMP_temperature;BMP_pressure;BME280_temperature;BME280_humidity;BME280_pressure;Samples;Min_cycle;Max_cycle;Signal;HPM_P1;HPM_P2
2021/11/18 00:01:50;;;;;;;34.43;14.20;;;;;;;6.65;70.75;102374.12;1849829;77;21376;-75
2021/11/18 00:04:16;;;;;;;51.88;17.70;;;;;;;6.67;70.96;102374.27;1845819;77;21304;-74
2021/11/18 00:06:49;;;;;;;35.08;16.25;;;;;;;6.72;70.93;102375.06;1849649;77;21316;-74
2021/11/18 00:09:23;;;;;;;37.70;15.90;;;;;;;6.75;70.79;102366.38;1849896;77;21174;-74
2021/11/18 00:11:58;;;;;;;43.60;18.25;;;;;;;6.72;70.57;102367.62;1849966;77;21743;-72
2021/11/18 00:14:33;;;;;;;44.13;16.45;;;;;;;6.65;70.70;102365.86;1850155;77;21296;-75
2021/11/18 00:17:06;;;;;;;49.25;17.80;;;;;;;6.54;70.73;102364.42;1850566;77;21726;-73
2021/11/18 00:19:39;;;;;;;50.05;17.23;;;;;;;6.45;70.79;102352.31;1850015;77;21707;-73
2021/11/18 00:22:11;;;;;;;45.15;18.25;;;;;;;6.40;70.57;102358.95;1819546;77;21300;-78
2021/11/18 00:24:44;;;;;;;50.12;21.33;;;;;;;6.37;70.37;102354.68;1853710;77;21166;-79
2021/11/18 00:27:17;;;;;;;67.32;24.72;;;;;;;6.35;70.34;102352.61;1853769;77;21328;-77
2021/11/18 00:29:52;;;;;;;76.07;26.73;;;;;;;6.35;70.31;102353.99;1841469;77;21300;-79
2021/11/18 00:32:24;;;;;;;57.17;20.90;;;;;;;6.38;70.30;102351.38;1813164;79;21308;-79
2021/11/18 00:34:57;;;;;;;48.45;18.95;;;;;;;6.43;70.27;102357.18;1813374;79;21327;-78
2021/11/18 00:37:31;;;;;;;47.67;16.07;;;;;;;6.45;70.23;102352.31;1807212;79;21434;-77
2021/11/18 00:40:06;;;;;;;35.88;14.65;;;;;;;6.48;70.31;102357.46;1813353;79;21296;-79
2021/11/18 00:42:40;;;;;;;48.20;16.62;;;;;;;6.50;70.26;102353.97;1813149;79;21193;-75
2021/11/18 00:45:22;;;;;;;34.63;16.67;;;;;;;6.49;70.33;102350.89;1786046;79;21299;-78
2021/11/18 00:47:56;;;;;;;28.50;15.70;;;;;;;6.51;70.27;102355.68;1812922;79;21201;-78
2021/11/18 00:50:31;;;;;;;;;;;;;;;6.52;70.16;102351.86;1815745;79;21715;-80
2021/11/18 00:53:03;;;;;;;;;;;;;;;6.55;70.07;102354.25;1815877;79;20191;-80
2021/11/18 00:55:35;;;;;;;52.15;18.10;;;;;;;6.55;70.02;102345.47;1813063;79;20210;-79
2021/11/18 00:58:08;;;;;;;63.20;22.13;;;;;;;6.54;69.85;102347.88;1813522;79;21818;-80
2021/11/18 01:00:44;;;;;;;68.42;23.32;;;;;;;6.51;69.79;102344.64;1813319;79;21311;-79
2021/11/18 01:03:20;;;;;;;52.98;19.02;;;;;;;6.48;69.73;102350.56;1812659;79;21346;-79
2021/11/18 01:05:54;;;;;;;50.15;16.07;;;;;;;6.43;69.75;102343.39;1811313;79;21181;-81
2021/11/18 01:08:27;;;;;;;32.80;15.53;;;;;;;6.42;69.81;102343.06;1813295;79;21919;-77
2021/11/18 01:11:07;;;;;;;27.05;13.55;;;;;;;6.40;69.88;102340.48;1813547;79;21300;-78
2021/11/18 01:13:40;;;;;;;30.85;13.38;;;;;;;6.40;69.84;102339.65;1813377;79;21335;-80
2021/11/18 01:16:16;;;;;;;39.05;15.55;;;;;;;6.39;69.83;102341.54;1813281;79;21145;-80
2021/11/18 01:18:50;;;;;;;38.33;15.03;;;;;;;6.44;69.74;102345.09;1811290;79;21312;-78
2021/11/18 01:21:23;;;;;;;34.10;14.90;;;;;;;6.42;69.65;102349.95;1813503;79;21679;-78
2021/11/18 01:23:57;;;;;;;38.15;14.95;;;;;;;6.39;69.62;102343.42;1811327;79;21912;-75
2021/11/18 01:26:35;;;;;;;29.32;14.20;;;;;;;6.35;69.59;102337.98;1812723;76;21371;-77
2021/11/18 01:29:08;;;;;;;26.73;11.18;;;;;;;6.28;69.74;102348.08;1830564;78;21957;-77
2021/11/18 01:31:46;;;;;;;36.90;14.53;;;;;;;6.26;69.89;102346.02;1830446;78;21312;-79
2021/11/18 01:34:19;;;;;;;30.02;13.48;;;;;;;6.26;69.96;102346.89;1832725;78;21870;-75
2021/11/18 01:36:52;;;;;;;32.40;13.88;;;;;;;6.27;70.00;102338.07;1885885;76;21299;-76
2021/11/18 01:39:25;;;;;;;36.55;15.48;;;;;;;6.25;69.92;102335.53;1885568;74;21316;-76
2021/11/18 01:41:57;;;;;;;33.10;13.43;;;;;;;6.21;70.04;102342.47;1885906;76;21350;-78
2021/11/18 01:44:40;;;;;;;28.17;12.78;;;;;;;6.21;70.03;102340.22;1885896;76;21197;-76
2021/11/18 01:47:13;;;;;;;30.08;12.37;;;;;;;6.15;70.04;102334.95;1885669;76;21838;-80
2021/11/18 01:49:48;;;;;;;35.65;12.90;;;;;;;6.14;70.13;102331.00;1832680;78;21312;-78
2021/11/18 01:52:23;;;;;;;29.32;12.13;;;;;;;6.11;70.25;102328.64;1886430;76;21173;-78
2021/11/18 01:54:59;;;;;;;34.20;14.15;;;;;;;6.10;70.52;102330.53;1898191;74;21236;-75
2021/11/18 01:57:34;;;;;;;32.25;13.93;;;;;;;6.10;70.63;102334.67;1893985;74;21158;-74
2021/11/18 02:00:18;;;;;;;28.40;13.00;;;;;;;6.13;70.63;102337.57;1889756;74;21137;-75
2021/11/18 02:02:52;;;;;;;31.10;13.55;;;;;;;6.16;70.63;102329.77;1866499;76;21153;-76
2021/11/18 02:05:35;;;;;;;28.35;12.75;;;;;;;6.20;70.35;102315.94;1859813;76;21146;-75
2021/11/18 02:08:10;;;;;;;32.08;12.43;;;;;;;6.18;70.21;102320.77;1885736;76;21149;-76
2021/11/18 02:10:47;;;;;;;29.32;13.03;;;;;;;6.15;70.20;102323.05;1830719;76;21870;-75
2021/11/18 02:13:22;;;;;;;29.18;12.73;;;;;;;6.10;70.30;102321.43;1884406;75;21292;-78
2021/11/18 02:15:58;;;;;;;26.80;11.22;;;;;;;6.07;70.43;102329.55;1886458;76;21397;-73
2021/11/18 02:18:36;;;;;;;31.33;11.88;;;;;;;6.11;70.60;102327.27;1886563;75;21253;-74
2021/11/18 02:21:13;;;;;;;21.52;10.95;;;;;;;6.16;70.57;102320.12;1891112;74;21880;-75
2021/11/18 02:23:52;;;;;;;24.12;12.43;;;;;;;6.20;70.40;102321.45;1854872;76;21155;-74
2021/11/18 02:26:30;;;;;;;28.60;12.15;;;;;;;6.22;70.18;102331.77;1888551;76;21256;-73
2021/11/18 02:29:06;;;;;;;29.63;12.00;;;;;;;6.20;70.09;102330.23;1890877;75;21300;-74
2021/11/18 02:31:46;;;;;;;25.27;11.97;;;;;;;6.19;70.08;102340.44;1839216;76;21308;-77
2021/11/18 02:34:25;;;;;;;28.25;14.40;;;;;;;6.24;70.04;102335.17;1750275;78;22278;-78
2021/11/18 02:36:57;;;;;;;40.63;14.38;;;;;;;6.24;69.88;102328.81;1800398;79;21351;-77
2021/11/18 02:39:30;;;;;;;28.77;13.18;;;;;;;6.20;69.89;102330.23;1784303;80;21261;-76
2021/11/18 02:42:04;;;;;;;25.57;11.55;;;;;;;6.14;70.03;102344.79;1804320;78;21301;-76
2021/11/18 02:44:57;;;;;;;34.25;13.88;;;;;;;6.10;70.24;102344.86;1783910;80;21186;-75
2021/11/18 02:47:45;;;;;;;28.87;13.25;;;;;;;6.09;70.38;102334.85;1771861;80;21386;-75
2021/11/18 02:50:23;;;;;;;30.70;13.03;;;;;;;6.13;70.44;102335.69;1799266;79;21327;-76
2021/11/18 02:52:56;;;;;;;35.40;13.55;;;;;;;6.14;70.39;102332.38;1764057;79;21157;-77
2021/11/18 02:55:33;;;;;;;27.48;12.90;;;;;;;6.15;70.42;102336.34;1769365;80;21337;-79
2021/11/18 02:58:06;;;;;;;36.00;13.30;;;;;;;6.14;70.36;102328.25;1778975;80;21833;-77
2021/11/18 03:01:01;;;;;;;30.75;12.85;;;;;;;6.11;70.45;102328.64;1797309;79;21368;-76
2021/11/18 03:03:33;;;;;;;32.83;13.08;;;;;;;6.09;70.49;102324.69;1773336;80;21985;-77
2021/11/18 03:06:06;;;;;;;30.77;11.85;;;;;;;6.07;70.58;102318.52;1819170;76;21904;-78
2021/11/18 03:08:39;;;;;;;26.30;12.05;;;;;;;6.04;70.73;102323.02;1847067;75;21300;-75
2021/11/18 03:11:12;;;;;;;31.17;13.23;;;;;;;6.06;70.90;102325.60;1849489;75;21301;-74
2021/11/18 03:13:44;;;;;;;27.98;11.45;;;;;;;6.11;70.85;102323.13;1830097;78;21205;-75
2021/11/18 03:16:17;;;;;;;29.45;12.13;;;;;;;6.11;70.69;102334.16;1830082;77;21174;-75
2021/11/18 03:18:50;;;;;;;26.73;11.22;;;;;;;6.09;70.70;102330.20;1830272;78;21204;-76
2021/11/18 03:21:27;;;;;;;31.80;12.75;;;;;;;6.11;70.67;102334.16;1829094;77;21723;-75
2021/11/18 03:24:02;;;;;;;27.10;12.30;;;;;;;6.08;70.63;102341.41;1830113;77;21241;-74
2021/11/18 03:26:39;;;;;;;26.33;10.70;;;;;;;6.05;70.69;102344.03;1833471;77;21163;-75
2021/11/18 03:29:13;;;;;;;33.75;12.60;;;;;;;6.03;70.73;102341.13;1846773;74;21339;-75
2021/11/18 03:31:45;;;;;;;30.60;12.18;;;;;;;5.99;70.75;102339.82;1843035;77;21173;-75
2021/11/18 03:34:22;;;;;;;26.97;11.93;;;;;;;5.96;70.90;102345.69;1841831;78;21197;-75
2021/11/18 03:36:55;;;;;;;29.40;12.25;;;;;;;5.93;71.00;102333.69;1841875;76;21826;-76
2021/11/18 03:39:28;;;;;;;34.18;12.63;;;;;;;5.95;71.07;102342.10;1841989;78;21161;-75
2021/11/18 03:42:06;;;;;;;36.38;12.07;;;;;;;5.95;71.02;102338.48;1785553;76;21340;-74
2021/11/18 03:44:39;;;;;;;29.37;13.20;;;;;;;5.94;71.07;102340.39;1776218;79;21318;-73
2021/11/18 03:47:13;;;;;;;24.52;11.28;;;;;;;5.93;70.96;102331.77;1775843;80;21337;-74
2021/11/18 03:49:47;;;;;;;38.70;12.35;;;;;;;5.90;71.00;102329.91;1788965;79;21339;-75
2021/11/18 03:52:21;;;;;;;34.45;18.23;;;;;;;5.89;71.10;102329.08;1804693;79;21724;-74
2021/11/18 03:54:53;;;;;;;80.92;43.05;;;;;;;5.94;71.17;102328.50;1798135;79;21320;-73
2021/11/18 03:57:26;;;;;;;59.15;29.12;;;;;;;5.94;70.97;102326.62;1794777;79;21530;-74
2021/11/18 04:00:01;;;;;;;31.82;14.18;;;;;;;5.92;70.92;102323.17;1808414;78;21843;-74
2021/11/18 04:02:36;;;;;;;47.03;14.80;;;;;;;5.87;70.89;102319.29;1783832;79;21822;-73
2021/11/18 04:05:08;;;;;;;;;;;;;;;5.82;70.94;102331.39;1777660;78;21328;-73
2021/11/18 04:07:44;;;;;;;33.33;12.80;;;;;;;5.79;71.08;102327.08;1800111;79;20249;-75
2021/11/18 04:10:20;;;;;;;30.95;12.47;;;;;;;5.75;71.08;102322.14;1754090;80;21321;-73
2021/11/18 04:12:54;;;;;;;27.30;12.25;;;;;;;5.73;71.12;102318.73;1794610;79;21169;-74
2021/11/18 04:15:29;;;;;;;35.17;13.62;;;;;;;5.70;71.19;102323.23;1808405;76;21241;-76
2021/11/18 04:18:02;;;;;;;32.35;13.10;;;;;;;5.67;71.29;102322.25;1812877;79;21313;-78
2021/11/18 04:20:37;;;;;;;30.82;13.48;;;;;;;5.69;71.42;102336.67;1806246;79;21316;-77
2021/11/18 04:23:10;;;;;;;41.48;14.45;;;;;;;5.76;71.30;102332.98;1812052;79;21926;-78
2021/11/18 04:25:42;;;;;;;41.63;13.93;;;;;;;5.76;71.15;102335.74;1811497;79;21343;-79
2021/11/18 04:28:14;;;;;;;35.28;14.40;;;;;;;5.73;71.19;102329.22;1812086;78;21217;-76
2021/11/18 04:30:55;;;;;;;31.57;12.13;;;;;;;5.63;71.35;102331.92;1787930;79;21158;-77
2021/11/18 04:33:33;;;;;;;29.40;11.85;;;;;;;5.56;71.81;102338.69;1815822;78;21178;-79
2021/11/18 04:36:08;;;;;;;23.38;12.55;;;;;;;5.55;71.99;102337.52;1831786;76;21209;-77
2021/11/18 04:38:52;;;;;;;25.62;12.85;;;;;;;5.60;71.99;102340.03;1803410;79;21319;-78
2021/11/18 04:41:17;;;;;;;26.15;12.15;;;;;;;5.62;71.94;102342.61;1817911;79;21307;-77
2021/11/18 04:43:51;;;;;;;29.05;12.90;;;;;;;5.66;71.94;102350.81;1786402;80;21331;-79
2021/11/18 04:46:24;;;;;;;27.50;12.23;;;;;;;5.70;71.88;102355.78;1786434;79;21305;-78
2021/11/18 04:48:58;;;;;;;42.35;15.08;;;;;;;5.69;71.93;102355.42;1786320;80;21312;-76
2021/11/18 04:51:31;;;;;;;160.15;38.60;;;;;;;5.72;72.04;102356.95;1730135;81;21218;-75
2021/11/18 04:54:04;;;;;;;227.70;49.70;;;;;;;5.77;72.06;102358.63;1782691;79;21332;-76
2021/11/18 04:56:37;;;;;;;159.67;34.95;;;;;;;5.81;72.16;102364.14;1780696;79;21363;-73
2021/11/18 04:59:14;;;;;;;258.23;51.98;;;;;;;5.86;72.00;102353.41;1722428;82;21351;-75
2021/11/18 05:01:47;;;;;;;255.80;45.90;;;;;;;5.85;71.87;102353.92;1779386;79;21732;-74
2021/11/18 05:04:23;;;;;;;149.80;28.40;;;;;;;5.86;72.02;102361.67;1780963;80;21704;-79
2021/11/18 05:06:58;;;;;;;324.27;51.33;;;;;;;5.88;72.06;102361.82;1781680;80;21795;-75
2021/11/18 05:09:32;;;;;;;442.63;65.05;;;;;;;5.90;72.04;102374.88;1752122;82;21257;-78
2021/11/18 05:12:06;;;;;;;344.93;54.53;;;;;;;5.90;72.03;102371.25;1785241;79;21360;-73
2021/11/18 05:14:39;;;;;;;306.07;50.92;;;;;;;5.92;72.02;102371.41;1795606;79;21229;-74
2021/11/18 05:17:12;;;;;;;321.37;58.38;;;;;;;5.93;71.80;102360.70;1780414;78;21330;-74
2021/11/18 05:19:45;;;;;;;141.30;29.75;;;;;;;5.92;71.63;102357.62;1755132;80;21357;-72
2021/11/18 05:22:17;;;;;;;164.88;35.98;;;;;;;5.89;71.61;102363.53;1723789;83;21172;-77
2021/11/18 05:24:52;;;;;;;137.43;36.08;;;;;;;5.86;71.53;102367.19;1753954;80;21185;-74
2021/11/18 05:27:24;;;;;;;104.32;30.02;;;;;;;5.84;71.57;102369.25;1766278;79;21918;-73
2021/11/18 05:29:57;;;;;;;100.87;27.30;;;;;;;5.83;71.63;102370.30;1781780;78;21245;-74
2021/11/18 05:32:31;;;;;;;63.48;22.58;;;;;;;5.85;71.72;102364.94;1770157;79;21194;-79
2021/11/18 05:35:07;;;;;;;79.20;27.00;;;;;;;5.90;71.62;102355.59;1762078;80;21336;-73
2021/11/18 05:37:40;;;;;;;85.22;27.17;;;;;;;5.93;71.36;102350.22;1782266;78;21185;-72
2021/11/18 05:40:16;;;;;;;83.00;31.10;;;;;;;5.92;71.19;102351.27;1784388;79;21356;-73
2021/11/18 05:42:48;;;;;;;73.15;30.10;;;;;;;5.86;71.30;102362.52;1770010;80;21171;-76
2021/11/18 05:45:25;;;;;;;64.15;27.93;;;;;;;5.83;71.47;102357.91;1770909;79;21751;-75
2021/11/18 05:48:08;;;;;;;48.63;19.73;;;;;;;5.86;71.54;102363.05;1772238;79;21159;-76
2021/11/18 05:50:46;;;;;;;56.60;20.72;;;;;;;5.81;71.52;102364.14;1779061;79;21210;-73
2021/11/18 05:53:31;;;;;;;43.75;18.42;;;;;;;5.79;71.73;102379.44;1765888;79;21187;-74
2021/11/18 05:56:10;;;;;;;46.13;17.17;;;;;;;5.82;71.85;102370.84;1766628;79;21381;-75
2021/11/18 05:58:46;;;;;;;48.13;18.17;;;;;;;5.88;71.74;102370.09;1775034;79;21317;-75
2021/11/18 06:01:23;;;;;;;45.90;15.98;;;;;;;5.90;71.58;102371.25;1768087;79;21434;-74
2021/11/18 06:03:58;;;;;;;34.75;17.25;;;;;;;5.88;71.59;102368.71;1776982;79;21349;-75
2021/11/18 06:06:32;;;;;;;50.88;18.20;;;;;;;5.87;71.63;102366.14;1798096;78;21295;-80
2021/11/18 06:09:07;;;;;;;45.58;17.23;;;;;;;5.84;71.72;102363.23;1695508;82;21203;-75
2021/11/18 06:11:42;;;;;;;43.73;17.70;;;;;;;5.87;71.85;102361.47;1707363;82;21163;-75
2021/11/18 06:14:23;;;;;;;49.60;17.12;;;;;;;5.91;71.91;102367.45;1709829;82;21398;-74
2021/11/18 06:16:58;;;;;;;43.48;18.65;;;;;;;5.98;71.92;102371.19;1693997;83;21274;-76
2021/11/18 06:19:35;;;;;;;44.10;18.57;;;;;;;6.10;71.89;102372.43;1701398;82;21180;-79
2021/11/18 06:22:09;;;;;;;55.38;18.73;;;;;;;6.16;71.71;102366.16;1713987;82;21766;-77
2021/11/18 06:24:51;;;;;;;47.00;16.97;;;;;;;6.20;71.41;102363.33;1676122;83;21243;-78
2021/11/18 06:27:23;;;;;;;50.52;18.80;;;;;;;6.20;71.23;102367.46;1692530;82;21321;-78
2021/11/18 06:29:56;;;;;;;44.98;18.45;;;;;;;6.23;71.13;102365.72;1755603;80;21855;-81
2021/11/18 06:32:28;;;;;;;41.98;17.77;;;;;;;6.23;70.93;102369.86;1781830;80;21281;-72
2021/11/18 06:35:01;;;;;;;40.15;18.37;;;;;;;6.20;70.84;102364.70;1780219;79;21209;-74
2021/11/18 06:37:34;;;;;;;49.57;17.50;;;;;;;6.21;70.73;102369.17;1778758;80;22014;-71
2021/11/18 06:40:23;;;;;;;43.63;17.03;;;;;;;6.25;70.85;102364.48;1774783;79;21250;-73
2021/11/18 06:42:57;;;;;;;44.25;17.95;;;;;;;6.32;70.83;102365.94;1780673;79;21587;-74
2021/11/18 06:45:36;;;;;;;46.98;17.27;;;;;;;6.37;70.65;102368.47;1784096;79;21325;-74
2021/11/18 06:48:10;;;;;;;40.48;17.45;;;;;;;6.40;70.42;102365.31;1778687;79;21332;-73
2021/11/18 06:50:44;;;;;;;46.80;23.42;;;;;;;6.43;70.32;102375.98;1788957;79;21313;-74
2021/11/18 06:53:19;;;;;;;43.00;18.87;;;;;;;6.42;70.16;102373.40;1774622;78;21339;-74
2021/11/18 06:56:00;;;;;;;42.85;21.02;;;;;;;6.41;70.11;102382.19;1809429;77;21326;-74
2021/11/18 06:58:38;;;;;;;47.50;23.00;;;;;;;6.37;70.07;102381.39;1772549;79;21339;-75
2021/11/18 07:01:11;;;;;;;39.03;19.67;;;;;;;6.36;70.24;102373.63;1802725;78;21182;-73
2021/11/18 07:03:55;;;;;;;52.67;18.57;;;;;;;6.34;70.18;102370.76;1805963;78;21177;-76
2021/11/18 07:06:49;;;;;;;44.03;20.20;;;;;;;6.35;70.29;102377.98;1793830;78;21728;-74
2021/11/18 07:09:23;;;;;;;52.00;20.43;;;;;;;6.35;70.47;102376.06;1802578;78;21321;-72
2021/11/18 07:12:12;;;;;;;45.50;19.75;;;;;;;6.37;70.50;102374.50;1783752;78;21818;-72
2021/11/18 07:14:46;;;;;;;45.40;21.02;;;;;;;6.38;70.61;102374.83;1753739;80;21405;-73
2021/11/18 07:17:19;;;;;;;49.45;21.73;;;;;;;6.39;70.83;102372.39;1758826;80;21731;-75
2021/11/18 07:19:52;;;;;;;54.23;23.85;;;;;;;6.39;70.96;102377.39;1764611;80;21328;-74
2021/11/18 07:22:28;;;;;;;55.83;25.62;;;;;;;6.38;71.21;102365.17;1726470;81;21404;-76
2021/11/18 07:25:08;;;;;;;51.83;25.12;;;;;;;6.38;71.27;102363.28;1771192;80;21174;-72
2021/11/18 07:27:42;;;;;;;53.83;21.07;;;;;;;6.40;71.51;102369.98;1748023;82;21333;-72
2021/11/18 07:30:16;;;;;;;47.05;19.27;;;;;;;6.41;71.59;102360.12;1767555;78;21175;-73
2021/11/18 07:32:53;;;;;;;48.13;19.92;;;;;;;6.40;71.66;102359.80;1787843;78;21333;-74
2021/11/18 07:35:29;;;;;;;46.75;22.10;;;;;;;6.32;71.92;102372.32;1755708;80;22142;-76
2021/11/18 07:38:03;;;;;;;58.10;21.52;;;;;;;6.31;72.12;102365.10;1791325;78;21167;-74
2021/11/18 07:40:38;;;;;;;47.33;21.15;;;;;;;6.34;72.19;102367.45;1785667;78;21332;-74
2021/11/18 07:43:15;;;;;;;40.43;19.12;;;;;;;6.38;72.16;102359.14;1786432;78;21319;-73
2021/11/18 07:46:00;;;;;;;;;;;;;;;6.44;72.11;102361.64;1783506;79;21166;-74
2021/11/18 07:48:45;;;;;;;37.33;17.92;;;;;;;6.46;72.08;102362.30;1784538;79;20191;-73
2021/11/18 07:51:21;;;;;;;43.63;20.20;;;;;;;6.49;71.95;102367.44;1784601;80;21308;-72
2021/11/18 07:53:54;;;;;;;49.67;16.95;;;;;;;6.54;72.00;102373.24;1778166;80;21327;-73
2021/11/18 07:56:26;;;;;;;60.40;19.85;;;;;;;6.56;71.71;102373.89;1775562;80;21419;-73
2021/11/18 07:58:59;;;;;;;41.90;18.12;;;;;;;6.57;71.41;102364.05;1776297;80;21412;-72
2021/11/18 08:01:33;;;;;;;44.00;17.82;;;;;;;6.58;71.23;102372.66;1744760;80;21647;-73
2021/11/18 08:04:08;;;;;;;57.85;18.10;;;;;;;6.61;71.19;102364.52;1775713;80;21455;-75
2021/11/18 08:06:42;;;;;;;56.75;20.15;;;;;;;6.70;71.16;102367.48;1774969;80;21304;-75
2021/11/18 08:09:16;;;;;;;51.35;20.65;;;;;;;6.80;71.11;102372.17;1773882;80;21175;-73
2021/11/18 08:11:55;;;;;;;48.65;20.60;;;;;;;6.85;70.85;102371.08;1771296;79;21708;-75
2021/11/18 08:14:29;;;;;;;47.35;19.12;;;;;;;6.87;70.63;102375.86;1770850;79;21183;-73
2021/11/18 08:17:03;;;;;;;45.65;19.82;;;;;;;6.88;70.52;102373.43;1774581;79;21321;-72
2021/11/18 08:19:36;;;;;;;38.50;20.00;;;;;;;6.86;70.25;102371.40;1789462;79;21319;-72
2021/11/18 08:22:14;;;;;;;41.68;18.98;;;;;;;6.82;70.14;102372.83;1776707;79;21846;-72
2021/11/18 08:24:46;;;;;;;42.15;20.00;;;;;;;6.84;70.21;102379.03;1776960;79;21166;-74
2021/11/18 08:27:19;;;;;;;40.48;19.40;;;;;;;6.86;70.01;102381.92;1775449;80;21158;-72
2021/11/18 08:29:52;;;;;;;48.08;18.75;;;;;;;6.91;69.95;102384.09;1776737;79;21241;-72
2021/11/18 08:32:24;;;;;;;39.58;17.67;;;;;;;6.95;69.88;102384.88;1776285;79;21309;-76
2021/11/18 08:34:59;;;;;;;42.03;17.62;;;;;;;6.97;69.64;102386.08;1774073;80;21258;-74
2021/11/18 08:37:34;;;;;;;42.13;19.57;;;;;;;6.96;69.52;102363.13;1774853;79;21363;-76
2021/11/18 08:40:08;;;;;;;35.58;18.35;;;;;;;6.95;69.41;102370.24;1775260;79;21340;-72
2021/11/18 08:42:40;;;;;;;;;;;;;;;6.95;69.32;102366.10;1776898;80;21218;-75
2021/11/18 08:45:12;;;;;;;43.13;18.45;;;;;;;6.96;69.17;102366.42;1770084;79;20219;-75
2021/11/18 08:47:49;;;;;;;40.08;19.25;;;;;;;6.91;69.15;102373.05;1773766;79;21175;-73
2021/11/18 08:50:22;;;;;;;35.20;18.37;;;;;;;6.85;69.29;102369.69;1776224;79;21818;-77
2021/11/18 08:52:55;;;;;;;47.43;20.45;;;;;;;6.81;69.52;102375.27;1775303;79;21199;-76
2021/11/18 08:55:33;;;;;;;49.18;16.65;;;;;;;6.85;69.77;102373.83;1765087;80;21995;-75
2021/11/18 08:58:07;;;;;;;50.78;19.82;;;;;;;6.90;69.71;102374.11;1760520;81;21828;-74
2021/11/18 09:00:49;;;;;;;47.23;19.23;;;;;;;6.93;69.74;102380.09;1763871;79;21155;-75
2021/11/18 09:03:26;;;;;;;52.65;21.62;;;;;;;6.97;69.61;102375.03;1762086;79;21234;-74
2021/11/18 09:05:58;;;;;;;56.18;22.32;;;;;;;7.01;69.43;102377.75;1764449;81;21443;-76
2021/11/18 09:08:32;;;;;;;48.75;22.00;;;;;;;7.06;69.40;102369.70;1764396;81;21835;-74
2021/11/18 09:11:10;;;;;;;52.20;23.67;;;;;;;7.13;69.30;102366.47;1764024;81;21286;-75
2021/11/18 09:13:45;;;;;;;58.55;23.70;;;;;;;7.18;68.91;102371.76;1760436;79;21318;-73
2021/11/18 09:16:18;;;;;;;52.93;22.40;;;;;;;7.18;68.76;102369.52;1760049;81;21176;-76
2021/11/18 09:18:52;;;;;;;53.13;22.48;;;;;;;7.18;68.58;102367.07;1761951;81;21243;-76
2021/11/18 09:21:29;;;;;;;51.20;23.02;;;;;;;7.18;68.46;102364.31;1764061;81;21341;-74
2021/11/18 09:24:17;;;;;;;52.58;21.77;;;;;;;7.20;68.58;102366.05;1763065;80;21843;-75
2021/11/18 09:26:55;;;;;;;38.70;18.57;;;;;;;7.22;68.60;102359.78;1764862;79;21851;-74
2021/11/18 09:29:30;;;;;;;52.30;21.57;;;;;;;7.20;68.55;102360.52;1764281;81;21426;-76
2021/11/18 09:32:07;;;;;;;54.23;20.12;;;;;;;7.21;68.73;102357.53;1762956;81;21366;-76
2021/11/18 09:34:41;;;;;;;51.40;20.02;;;;;;;7.28;68.85;102353.47;1763785;79;21155;-78
2021/11/18 09:37:14;;;;;;;69.90;26.68;;;;;;;7.33;68.85;102356.83;1763685;80;21174;-77
2021/11/18 09:39:47;;;;;;;65.17;27.22;;;;;;;7.38;68.74;102357.60;1763534;81;21360;-76
2021/11/18 09:42:24;;;;;;;80.95;30.62;;;;;;;7.42;68.47;102358.92;1764135;81;21409;-78
2021/11/18 09:45:10;;;;;;;69.92;31.12;;;;;;;7.43;68.34;102338.01;1765370;81;21313;-76
2021/11/18 09:48:40;;;;;;;67.90;31.10;;;;;;;7.45;68.11;102335.02;1764247;81;21199;-75
2021/11/18 09:51:28;;;;;;;71.40;29.77;;;;;;;7.42;67.97;102342.34;1762543;81;21823;-74
2021/11/18 09:54:17;;;;;;;69.37;26.20;;;;;;;7.38;68.20;102348.48;1763893;81;21331;-75
2021/11/18 09:57:42;;;;;;;63.45;25.90;;;;;;;7.38;68.38;102349.86;1772714;80;21329;-74
2021/11/18 10:00:43;;;;;;;59.18;25.30;;;;;;;7.42;68.58;102331.30;1792632;78;21295;-75
2021/11/18 10:03:52;;;;;;;58.10;25.82;;;;;;;7.48;68.55;102328.56;1797544;79;21307;-74
2021/11/18 10:06:34;;;;;;;51.33;23.90;;;;;;;7.55;68.49;102325.88;1773519;79;21336;-76
2021/11/18 10:09:12;;;;;;;47.85;21.52;;;;;;;7.65;68.69;102322.23;1778986;79;21763;-76
2021/11/18 10:12:16;;;;;;;55.12;21.57;;;;;;;7.75;68.42;102324.97;1778565;79;21764;-71
2021/11/18 10:15:06;;;;;;;48.35;20.65;;;;;;;7.83;68.18;102320.66;1775258;80;21347;-70
2021/11/18 10:17:47;;;;;;;57.38;21.50;;;;;;;7.90;68.05;102304.12;1780111;80;21178;-73
2021/11/18 10:20:27;;;;;;;51.83;18.92;;;;;;;7.92;68.03;102302.86;1785087;77;21349;-72
2021/11/18 10:23:05;;;;;;;50.85;23.05;;;;;;;7.98;67.89;102302.56;1784804;79;21182;-71
2021/11/18 10:25:47;;;;;;;50.45;21.15;;;;;;;7.99;67.66;102295.45;1784851;79;21432;-70
2021/11/18 10:28:27;;;;;;;52.48;22.02;;;;;;;8.03;67.47;102298.11;1782607;78;21448;-69
2021/11/18 10:31:17;;;;;;;44.90;20.72;;;;;;;8.05;67.43;102298.78;1779417;80;21857;-70
2021/11/18 10:34:31;;;;;;;47.53;19.95;;;;;;;8.05;67.37;102291.00;1779345;79;21233;-70
2021/11/18 10:37:17;;;;;;;67.27;22.32;;;;;;;8.03;67.31;102292.58;1779077;79;21357;-71
2021/11/18 10:40:17;;;;;;;41.63;20.10;;;;;;;8.09;67.24;102288.16;1777744;80;21712;-72
2021/11/18 10:43:14;;;;;;;92.02;24.45;;;;;;;8.15;67.22;102290.94;1780314;79;21854;-73
2021/11/18 10:45:55;;;;;;;68.07;24.67;;;;;;;8.21;66.79;102286.00;1766799;80;21182;-70
2021/11/18 10:48:37;;;;;;;49.18;21.80;;;;;;;8.24;66.48;102277.83;1778398;80;21170;-70
2021/11/18 10:51:16;;;;;;;48.30;21.52;;;;;;;8.25;66.26;102280.91;1782327;80;21320;-73
2021/11/18 10:54:05;;;;;;;66.45;22.42;;;;;;;8.23;66.38;102276.98;1778698;80;21218;-74
2021/11/18 10:56:48;;;;;;;52.73;23.50;;;;;;;8.25;65.89;102274.86;1780813;80;21867;-73
2021/11/18 10:59:37;;;;;;;48.85;22.65;;;;;;;8.19;65.60;102271.53;1773856;79;21324;-71
2021/11/18 11:02:31;;;;;;;64.45;21.75;;;;;;;8.18;65.77;102268.93;1776043;79;21313;-71
2021/11/18 11:05:28;;;;;;;42.45;19.65;;;;;;;8.18;65.91;102267.03;1800246;79;21815;-71
2021/11/18 11:08:08;;;;;;;54.30;21.30;;;;;;;8.21;65.82;102268.57;1784953;79;21313;-71
2021/11/18 11:10:42;;;;;;;51.88;19.17;;;;;;;8.18;65.59;102261.50;1738055;80;21218;-71
2021/11/18 11:13:41;;;;;;;48.10;20.40;;;;;;;8.11;65.54;102260.63;1796579;79;21735;-69
2021/11/18 11:16:31;;;;;;;71.25;24.85;;;;;;;8.05;65.46;102251.77;1786455;79;21361;-71
2021/11/18 11:19:26;;;;;;;54.53;22.17;;;;;;;7.97;65.66;102260.21;1782522;79;21268;-74
2021/11/18 11:22:03;;;;;;;57.30;22.55;;;;;;;7.89;65.63;102261.77;1705706;82;21282;-71
2021/11/18 11:25:04;;;;;;;40.45;18.37;;;;;;;7.83;65.85;102266.73;1733426;82;21638;-75
2021/11/18 11:28:16;;;;;;;40.45;17.80;;;;;;;7.77;65.86;102264.79;1760569;80;21308;-70
2021/11/18 11:31:02;;;;;;;41.90;18.48;;;;;;;7.69;66.24;102258.05;1754901;80;21312;-75
2021/11/18 11:33:51;;;;;;;44.10;19.67;;;;;;;7.70;66.54;102253.36;1780641;79;21174;-69
2021/11/18 11:36:28;;;;;;;42.58;21.52;;;;;;;7.74;66.45;102247.75;1779920;80;21783;-75
2021/11/18 11:39:25;;;;;;;47.73;21.27;;;;;;;7.76;66.37;102235.95;1781421;80;21335;-71
2021/11/18 11:42:46;;;;;;;47.15;19.40;;;;;;;7.75;66.32;102235.12;1771461;79;21272;-78
2021/11/18 11:45:38;;;;;;;39.20;18.40;;;;;;;7.76;66.32;102229.91;1781092;79;21748;-79
2021/11/18 11:48:31;;;;;;;39.18;19.40;;;;;;;7.79;66.23;102235.56;1779888;79;21222;-73
2021/11/18 11:51:33;;;;;;;46.95;19.25;;;;;;;7.81;66.16;102235.69;1801153;79;21324;-73
2021/11/18 11:54:33;;;;;;;53.45;22.00;;;;;;;7.82;66.24;102225.46;1761971;80;21187;-72
2021/11/18 11:57:47;;;;;;;47.10;23.00;;;;;;;7.83;66.17;102213.37;1773152;80;21352;-74
2021/11/18 12:00:27;;;;;;;46.90;19.90;;;;;;;7.86;66.12;102213.81;1762209;80;21342;-77
2021/11/18 12:03:20;;;;;;;50.65;21.12;;;;;;;7.88;65.91;102215.83;1763404;80;21314;-74
2021/11/18 12:06:20;;;;;;;55.10;24.02;;;;;;;7.87;65.75;102216.89;1771780;80;21709;-78
2021/11/18 12:09:04;;;;;;;55.83;24.80;;;;;;;7.88;65.52;102209.44;1793136;79;21153;-78
2021/11/18 12:12:08;;;;;;;57.10;27.30;;;;;;;7.84;65.23;102205.40;1782804;79;21333;-78